createdAt,value
2022-08-25T00:00:20.288Z,20.80
2022-08-25T00:02:55.737Z,20.70
2022-08-25T00:05:32.127Z,20.70
2022-08-25T00:08:01.149Z,20.60
2022-08-25T00:10:29.538Z,20.60
2022-08-25T00:12:57.512Z,20.60
2022-08-25T00:15:25.966Z,20.60
2022-08-25T00:17:55.734Z,20.50
2022-08-25T00:20:23.724Z,20.50
2022-08-25T00:22:51.880Z,20.50
2022-08-25T00:25:20.493Z,20.40
2022-08-25T00:27:48.870Z,20.40
2022-08-25T00:30:17.614Z,20.30
2022-08-25T00:32:55.149Z,20.30
2022-08-25T00:35:27.898Z,20.30
2022-08-25T00:37:56.154Z,20.30
2022-08-25T00:40:25.736Z,20.20
2022-08-25T00:42:54.575Z,20.20
2022-08-25T00:45:23.763Z,20.20
2022-08-25T00:47:51.769Z,20.20
2022-08-25T00:50:20.558Z,20.20
2022-08-25T00:52:53.944Z,20.20
2022-08-25T00:55:25.725Z,20.20
2022-08-25T00:57:57.975Z,20.10
2022-08-25T01:00:31.190Z,20.10
2022-08-25T01:02:59.706Z,20.10
2022-08-25T01:05:29.156Z,20.00
2022-08-25T01:08:01.211Z,20.00
2022-08-25T01:10:32.230Z,20.00
2022-08-25T01:13:06.269Z,19.90
2022-08-25T01:15:38.719Z,19.90
2022-08-25T01:18:06.994Z,19.80
2022-08-25T01:20:35.549Z,19.80
2022-08-25T01:23:05.247Z,19.70
2022-08-25T01:25:52.537Z,19.70
2022-08-25T01:28:21.291Z,19.60
2022-08-25T01:30:50.482Z,19.60
2022-08-25T01:33:18.493Z,19.60
2022-08-25T01:35:47.535Z,19.50
2022-08-25T01:38:17.187Z,19.50
2022-08-25T01:40:45.549Z,19.50
2022-08-25T01:43:22.141Z,19.40
2022-08-25T01:45:50.688Z,19.40
2022-08-25T01:48:20.456Z,19.40
2022-08-25T01:50:48.451Z,19.40
2022-08-25T01:53:23.934Z,19.40
2022-08-25T01:56:01.679Z,19.30
2022-08-25T01:58:34.102Z,19.30
2022-08-25T02:01:06.897Z,19.30
2022-08-25T02:03:38.089Z,19.30
2022-08-25T02:06:10.663Z,19.20
2022-08-25T02:08:40.273Z,19.20
2022-08-25T02:11:12.893Z,19.10
2022-08-25T02:13:41.705Z,19.10
2022-08-25T02:16:11.591Z,19.10
2022-08-25T02:18:39.833Z,19.10
2022-08-25T02:21:07.802Z,19.00
2022-08-25T02:23:36.045Z,19.00
2022-08-25T02:26:06.284Z,19.00
2022-08-25T02:28:34.391Z,18.90
2022-08-25T02:31:02.609Z,19.00
2022-08-25T02:33:30.675Z,19.00
2022-08-25T02:35:59.650Z,19.00
2022-08-25T02:38:28.401Z,19.00
2022-08-25T02:40:56.437Z,19.00
2022-08-25T02:43:26.455Z,19.00
2022-08-25T02:45:55.406Z,19.00
2022-08-25T02:48:24.392Z,19.10
2022-08-25T02:50:53.466Z,19.00
2022-08-25T02:53:21.909Z,19.00
2022-08-25T02:55:49.865Z,19.00
2022-08-25T02:58:17.873Z,19.00
2022-08-25T03:00:47.253Z,18.90
2022-08-25T03:03:16.344Z,18.90
2022-08-25T03:05:44.321Z,18.90
2022-08-25T03:08:12.382Z,18.90
2022-08-25T03:10:40.711Z,18.80
2022-08-25T03:13:08.723Z,18.80
2022-08-25T03:15:38.342Z,18.80
2022-08-25T03:18:08.682Z,18.80
2022-08-25T03:20:36.770Z,18.70
2022-08-25T03:23:06.052Z,18.70
2022-08-25T03:25:48.463Z,18.70
2022-08-25T03:28:16.489Z,18.70
2022-08-25T03:30:44.472Z,18.60
2022-08-25T03:33:15.052Z,18.60
2022-08-25T03:35:43.087Z,18.50
2022-08-25T03:38:11.464Z,18.60
2022-08-25T03:40:39.524Z,18.50
2022-08-25T03:43:07.481Z,18.50
2022-08-25T03:45:36.064Z,18.40
2022-08-25T03:48:04.453Z,18.50
2022-08-25T03:50:34.138Z,18.50
2022-08-25T03:53:02.282Z,18.40
2022-08-25T03:55:30.687Z,18.40
2022-08-25T03:58:00.613Z,18.40
2022-08-25T04:00:28.599Z,18.40
2022-08-25T04:02:56.540Z,18.40
2022-08-25T04:05:24.820Z,18.30
2022-08-25T04:07:56.461Z,18.40
2022-08-25T04:10:24.527Z,18.40
2022-08-25T04:12:52.506Z,18.40
2022-08-25T04:15:20.660Z,18.40
2022-08-25T04:17:48.628Z,18.40
2022-08-25T04:20:20.353Z,18.30
2022-08-25T04:22:48.422Z,18.30
2022-08-25T04:25:17.908Z,18.30
2022-08-25T04:27:45.851Z,18.30
2022-08-25T04:30:15.103Z,18.30
2022-08-25T04:32:43.031Z,18.30
2022-08-25T04:35:11.450Z,18.30
2022-08-25T04:37:39.389Z,18.30
2022-08-25T04:40:09.408Z,18.40
2022-08-25T04:42:39.288Z,18.40
2022-08-25T04:45:08.353Z,18.40
2022-08-25T04:47:39.217Z,18.40
2022-08-25T04:50:08.401Z,18.50
2022-08-25T04:52:36.428Z,18.50
2022-08-25T04:55:05.048Z,18.60
2022-08-25T04:57:32.957Z,18.60
2022-08-25T05:00:02.460Z,18.60
2022-08-25T05:02:31.258Z,18.60
2022-08-25T05:04:59.215Z,18.70
2022-08-25T05:07:27.506Z,18.80
2022-08-25T05:09:55.757Z,18.80
2022-08-25T05:12:23.711Z,18.90
2022-08-25T05:14:53.329Z,19.00
2022-08-25T05:17:22.669Z,19.10
2022-08-25T05:19:50.636Z,19.20
2022-08-25T05:22:18.644Z,19.30
2022-08-25T05:24:47.150Z,19.30
2022-08-25T05:27:15.164Z,19.40
2022-08-25T05:29:44.113Z,19.50
2022-08-25T05:32:12.269Z,19.60
2022-08-25T05:34:41.618Z,19.60
2022-08-25T05:37:12.165Z,19.60
2022-08-25T05:39:40.334Z,19.70
2022-08-25T05:42:08.856Z,19.70
2022-08-25T05:44:36.795Z,19.70
2022-08-25T05:47:05.392Z,19.90
2022-08-25T05:49:33.346Z,19.90
2022-08-25T05:52:02.899Z,19.90
2022-08-25T05:54:31.605Z,20.00
2022-08-25T05:57:00.114Z,20.00
2022-08-25T05:59:28.207Z,20.00
2022-08-25T06:02:13.808Z,20.00
2022-08-25T06:04:41.767Z,20.00
2022-08-25T06:07:12.758Z,20.10
2022-08-25T06:09:45.895Z,20.10
2022-08-25T06:12:14.209Z,20.10
2022-08-25T06:14:42.647Z,20.20
2022-08-25T06:17:10.836Z,20.30
2022-08-25T06:19:41.252Z,20.40
2022-08-25T06:22:10.867Z,20.40
2022-08-25T06:24:38.820Z,20.40
2022-08-25T06:27:06.940Z,20.40
2022-08-25T06:29:34.907Z,20.60
2022-08-25T06:32:03.056Z,20.60
2022-08-25T06:34:31.012Z,20.70
2022-08-25T06:36:59.046Z,20.80
2022-08-25T06:39:28.895Z,20.90
2022-08-25T06:41:58.042Z,21.00
2022-08-25T06:44:28.128Z,21.10
2022-08-25T06:46:56.316Z,21.30
2022-08-25T06:49:27.738Z,21.50
2022-08-25T06:51:55.890Z,21.60
2022-08-25T06:54:23.840Z,21.50
2022-08-25T06:56:53.149Z,21.60
2022-08-25T06:59:23.190Z,21.80
2022-08-25T07:01:51.219Z,21.90
2022-08-25T07:04:20.894Z,22.00
2022-08-25T07:06:48.997Z,22.10
2022-08-25T07:09:17.027Z,22.20
2022-08-25T07:11:46.346Z,22.30
2022-08-25T07:14:17.855Z,22.50
2022-08-25T07:16:49.674Z,22.70
2022-08-25T07:19:20.591Z,22.80
2022-08-25T07:21:51.528Z,23.20
2022-08-25T07:24:19.736Z,24.40
2022-08-25T07:26:47.770Z,26.40
2022-08-25T07:29:19.533Z,28.80
2022-08-25T07:31:48.185Z,30.90
2022-08-25T07:34:34.702Z,32.50
2022-08-25T07:37:05.252Z,34.10
2022-08-25T07:39:35.566Z,35.20
2022-08-25T07:42:04.847Z,35.60
2022-08-25T07:44:41.281Z,35.70
2022-08-25T07:47:11.503Z,35.10
2022-08-25T07:49:39.938Z,34.10
2022-08-25T07:52:09.048Z,33.20
2022-08-25T07:54:38.449Z,32.70
2022-08-25T07:57:08.707Z,33.30
2022-08-25T07:59:40.430Z,33.60
2022-08-25T08:02:18.000Z,34.60
2022-08-25T08:04:48.700Z,35.30
2022-08-25T08:07:18.601Z,36.60
2022-08-25T08:09:48.720Z,37.30
2022-08-25T08:12:21.239Z,37.80
2022-08-25T08:14:51.369Z,38.00
2022-08-25T08:17:21.471Z,38.20
2022-08-25T10:31:57.921Z,38.30
2022-08-25T10:34:39.072Z,35.80
2022-08-25T10:37:24.368Z,35.20
2022-08-25T10:40:01.344Z,34.90
2022-08-25T10:42:37.083Z,34.30
2022-08-25T10:45:38.304Z,34.20
2022-08-25T10:48:44.789Z,33.70
2022-08-25T10:51:32.485Z,32.90
2022-08-25T10:54:13.658Z,32.50
2022-08-25T10:56:44.741Z,32.10
2022-08-25T10:59:43.824Z,31.60
2022-08-25T11:02:34.775Z,31.40
2022-08-25T11:05:08.517Z,31.30
2022-08-25T11:07:41.186Z,31.40
2022-08-25T11:10:14.412Z,31.30
2022-08-25T11:12:45.277Z,31.30
2022-08-25T11:15:20.665Z,31.20
2022-08-25T11:17:54.447Z,31.30
2022-08-25T11:20:28.310Z,31.30
2022-08-25T11:23:07.926Z,30.90
2022-08-25T11:25:41.691Z,31.00
2022-08-25T11:28:14.641Z,30.90
2022-08-25T11:30:43.024Z,31.10
2022-08-25T11:33:14.655Z,31.30
2022-08-25T11:35:48.997Z,31.40
2022-08-25T11:38:33.132Z,31.30
2022-08-25T11:41:12.435Z,31.20
2022-08-25T11:43:54.018Z,31.20
2022-08-25T11:46:36.301Z,31.00
2022-08-25T11:49:31.656Z,30.80
2022-08-25T11:52:03.043Z,30.50
2022-08-25T11:54:38.726Z,30.60
2022-08-25T11:57:22.281Z,30.80
2022-08-25T12:00:14.081Z,31.20
2022-08-25T12:02:44.643Z,31.30
2022-08-25T12:05:55.070Z,31.20
2022-08-25T12:08:57.567Z,31.00
2022-08-25T12:11:47.637Z,31.20
2022-08-25T12:14:37.455Z,31.50
2022-08-25T12:17:20.574Z,32.00
2022-08-25T12:19:52.687Z,32.40
2022-08-25T12:22:51.312Z,32.50
2022-08-25T12:25:44.313Z,32.90
2022-08-25T12:28:30.524Z,33.20
2022-08-25T12:31:16.983Z,33.40
2022-08-25T12:34:16.786Z,33.10
2022-08-25T12:36:58.977Z,32.60
2022-08-25T12:39:32.318Z,32.20
2022-08-25T12:42:04.845Z,31.90
2022-08-25T12:44:43.111Z,31.50
2022-08-25T12:47:31.894Z,31.40
2022-08-25T12:50:28.225Z,31.20
2022-08-25T12:53:04.903Z,30.90
2022-08-25T12:55:35.050Z,30.60
2022-08-25T12:58:05.771Z,30.50
2022-08-25T13:00:46.658Z,30.70
2022-08-25T13:06:40.756Z,31.20
2022-08-25T13:09:46.798Z,31.20
2022-08-25T13:12:18.894Z,31.10
2022-08-25T13:14:54.894Z,31.10
2022-08-25T13:17:27.886Z,31.10
2022-08-25T13:20:17.184Z,31.00
2022-08-25T13:22:47.751Z,30.80
2022-08-25T13:25:23.144Z,30.60
2022-08-25T13:27:58.116Z,30.60
2022-08-25T13:30:29.771Z,30.90
2022-08-25T13:32:58.321Z,31.20
2022-08-25T13:35:35.167Z,31.70
2022-08-25T13:38:17.343Z,31.80
2022-08-25T13:40:45.814Z,32.20
2022-08-25T13:43:16.343Z,32.40
2022-08-25T13:45:47.440Z,32.60
2022-08-25T13:48:32.004Z,32.70
2022-08-25T13:51:08.901Z,32.90
2022-08-25T13:53:39.542Z,32.80
2022-08-25T13:56:07.769Z,33.00
2022-08-25T13:58:45.705Z,33.20
2022-08-25T14:01:23.695Z,33.10
2022-08-25T14:04:29.474Z,32.90
2022-08-25T14:07:34.434Z,32.60
2022-08-25T14:10:05.912Z,32.60
2022-08-25T14:12:40.534Z,32.40
2022-08-25T14:15:13.646Z,32.60
2022-08-25T14:17:48.413Z,32.60
2022-08-25T14:20:21.782Z,32.40
2022-08-25T14:22:54.907Z,32.20
2022-08-25T14:25:22.964Z,31.90
2022-08-25T14:28:13.848Z,31.60
2022-08-25T14:30:46.199Z,31.50
2022-08-25T14:33:16.429Z,31.40
2022-08-25T14:35:48.037Z,31.40
2022-08-25T14:38:18.489Z,31.60
2022-08-25T14:40:46.967Z,31.90
2022-08-25T14:43:18.344Z,32.10
2022-08-25T14:45:52.406Z,32.20
2022-08-25T14:48:26.817Z,32.30
2022-08-25T14:50:56.325Z,32.60
2022-08-25T14:53:27.313Z,32.70
2022-08-25T14:55:59.210Z,32.70
2022-08-25T14:58:27.926Z,32.70
2022-08-25T15:01:03.386Z,32.50
2022-08-25T15:03:35.992Z,32.40
2022-08-25T15:06:05.996Z,32.20
2022-08-25T15:08:52.889Z,32.10
2022-08-25T15:11:20.956Z,31.80
2022-08-25T15:13:50.025Z,31.80
2022-08-25T15:16:25.312Z,31.70
2022-08-25T15:19:06.678Z,31.60
2022-08-25T15:21:35.747Z,31.50
2022-08-25T15:24:05.956Z,31.40
2022-08-25T15:26:39.944Z,31.20
2022-08-25T15:29:08.016Z,31.20
2022-08-25T15:31:38.713Z,31.10
2022-08-25T15:34:07.386Z,31.00
2022-08-25T15:36:40.786Z,30.90
2022-08-25T15:39:11.532Z,30.60
2022-08-25T15:41:39.671Z,30.40
2022-08-25T15:44:11.365Z,30.20
2022-08-25T15:46:42.203Z,30.10
2022-08-25T15:49:20.278Z,29.90
2022-08-25T15:51:48.817Z,29.80
2022-08-25T15:54:18.128Z,29.70
2022-08-25T15:56:46.162Z,29.70
2022-08-25T15:59:14.473Z,29.60
2022-08-25T16:01:43.680Z,29.70
2022-08-25T16:04:12.647Z,29.80
2022-08-25T16:06:40.623Z,29.80
2022-08-25T16:09:08.971Z,29.90
2022-08-25T16:11:38.934Z,30.00
2022-08-25T16:14:07.269Z,30.00
2022-08-25T16:16:35.437Z,30.00
2022-08-25T16:19:04.841Z,30.00
2022-08-25T16:21:36.988Z,30.00
2022-08-25T16:24:10.627Z,30.00
2022-08-25T16:26:48.253Z,30.00
2022-08-25T16:29:17.476Z,30.00
2022-08-25T16:31:45.641Z,30.00
2022-08-25T16:34:22.133Z,30.10
2022-08-25T16:36:52.803Z,30.10
2022-08-25T16:39:21.040Z,30.00
2022-08-25T16:41:51.385Z,29.90
2022-08-25T16:44:22.486Z,29.80
2022-08-25T16:46:54.334Z,29.70
2022-08-25T16:49:24.203Z,29.60
2022-08-25T16:51:57.048Z,29.60
2022-08-25T16:54:43.883Z,29.50
2022-08-25T16:57:13.503Z,29.40
2022-08-25T16:59:42.468Z,29.40
2022-08-25T17:02:12.134Z,29.40
2022-08-25T17:04:41.930Z,29.30
2022-08-25T17:07:10.455Z,29.20
2022-08-25T17:09:38.395Z,29.20
2022-08-25T17:12:06.894Z,29.30
2022-08-25T17:14:36.700Z,29.30
2022-08-25T17:17:07.011Z,29.30
2022-08-25T17:19:35.254Z,29.30
2022-08-25T17:22:03.359Z,29.20
2022-08-25T17:24:33.750Z,29.10
2022-08-25T17:27:02.656Z,29.00
2022-08-25T17:29:30.678Z,28.90
2022-08-25T17:32:00.135Z,28.90
2022-08-25T17:34:29.092Z,28.80
2022-08-25T17:36:58.071Z,28.70
2022-08-25T17:39:26.499Z,28.60
2022-08-25T17:41:54.687Z,28.60
2022-08-25T17:44:22.748Z,28.50
2022-08-25T17:46:50.853Z,28.40
2022-08-25T17:49:21.346Z,28.30
2022-08-25T17:51:51.080Z,28.30
2022-08-25T17:54:19.898Z,28.20
2022-08-25T17:56:48.825Z,28.10
2022-08-25T17:59:18.774Z,28.00
2022-08-25T18:01:47.997Z,27.90
2022-08-25T18:04:17.303Z,27.80
2022-08-25T18:06:48.238Z,27.70
2022-08-25T18:09:16.450Z,27.60
2022-08-25T18:11:45.615Z,27.50
2022-08-25T18:14:16.462Z,27.40
2022-08-25T18:16:44.545Z,27.30
2022-08-25T18:19:14.292Z,27.20
2022-08-25T18:21:43.627Z,27.00
2022-08-25T18:24:13.566Z,26.90
2022-08-25T18:26:42.072Z,26.80
2022-08-25T18:29:12.835Z,26.70
2022-08-25T18:31:42.221Z,26.60
2022-08-25T18:34:11.414Z,26.50
2022-08-25T18:36:39.828Z,26.30
2022-08-25T18:39:28.751Z,26.10
2022-08-25T18:42:02.775Z,26.10
2022-08-25T18:44:32.105Z,25.90
2022-08-25T18:47:00.314Z,25.80
2022-08-25T18:49:37.012Z,25.70
2022-08-25T18:52:06.658Z,25.70
2022-08-25T18:54:36.142Z,25.60
2022-08-25T18:57:08.199Z,25.50
2022-08-25T18:59:37.876Z,25.50
2022-08-25T19:02:06.969Z,25.40
2022-08-25T19:04:35.067Z,25.30
2022-08-25T19:07:03.246Z,25.20
2022-08-25T19:09:31.875Z,25.20
2022-08-25T19:12:00.161Z,25.10
2022-08-25T19:14:29.816Z,25.00
2022-08-25T19:16:59.092Z,24.90
2022-08-25T19:19:27.905Z,24.90
2022-08-25T19:21:55.945Z,24.80
2022-08-25T19:24:23.907Z,24.70
2022-08-25T19:26:54.694Z,24.70
2022-08-25T19:29:24.081Z,24.60
2022-08-25T19:31:53.683Z,24.60
2022-08-25T19:34:28.153Z,24.50
2022-08-25T19:37:00.063Z,24.50
2022-08-25T19:39:28.497Z,24.40
2022-08-25T19:41:59.037Z,24.40
2022-08-25T19:44:28.023Z,24.30
2022-08-25T19:46:57.729Z,24.30
2022-08-25T19:49:33.340Z,24.20
2022-08-25T19:52:03.357Z,24.20
2022-08-25T19:54:34.697Z,24.10
2022-08-25T19:57:05.095Z,24.10
2022-08-25T19:59:43.091Z,24.10
2022-08-25T20:02:15.956Z,24.00
2022-08-25T20:04:49.161Z,24.00
2022-08-25T20:07:19.618Z,23.90
2022-08-25T20:09:48.513Z,23.90
2022-08-25T20:12:17.500Z,23.80
2022-08-25T20:14:47.007Z,23.80
2022-08-25T20:17:24.551Z,23.70
2022-08-25T20:19:55.500Z,23.70
2022-08-25T20:22:26.229Z,23.70
2022-08-25T20:24:58.723Z,23.60
2022-08-25T20:27:34.940Z,23.60
2022-08-25T20:30:04.540Z,23.60
2022-08-25T20:32:35.621Z,23.60
2022-08-25T20:35:06.219Z,23.70
2022-08-25T20:37:37.270Z,23.70
2022-08-25T20:40:06.615Z,23.70
2022-08-25T20:42:35.733Z,23.70
2022-08-25T20:45:06.712Z,23.70
2022-08-25T20:47:36.159Z,23.70
2022-08-25T20:50:06.949Z,23.70
2022-08-25T20:52:36.297Z,23.70
2022-08-25T20:55:08.741Z,23.60
2022-08-25T20:57:36.906Z,23.60
2022-08-25T21:00:07.348Z,23.60
2022-08-25T21:02:36.800Z,23.50
2022-08-25T21:05:05.621Z,23.50
2022-08-25T21:07:35.860Z,23.40
2022-08-25T21:10:10.561Z,23.40
2022-08-25T21:12:42.367Z,23.40
2022-08-25T21:15:12.031Z,23.30
2022-08-25T21:17:41.537Z,23.30
2022-08-25T21:20:11.822Z,23.30
2022-08-25T21:22:39.889Z,23.30
2022-08-25T21:25:09.395Z,23.30
2022-08-25T21:27:37.706Z,23.30
2022-08-25T21:30:07.801Z,23.20
2022-08-25T21:32:36.397Z,23.20
2022-08-25T21:35:08.074Z,23.10
2022-08-25T21:37:36.156Z,23.00
2022-08-25T21:40:06.954Z,23.00
2022-08-25T21:42:36.655Z,23.00
2022-08-25T21:45:05.162Z,23.00
2022-08-25T21:47:42.253Z,23.00
2022-08-25T21:50:13.807Z,23.00
2022-08-25T21:52:43.167Z,23.00
2022-08-25T21:55:16.246Z,22.90
2022-08-25T21:57:44.504Z,22.90
2022-08-25T22:00:15.025Z,22.90
2022-08-25T22:02:45.844Z,22.80
2022-08-25T22:05:15.514Z,22.80
2022-08-25T22:07:48.663Z,22.80
2022-08-25T22:10:23.745Z,22.70
2022-08-25T22:12:52.820Z,22.70
2022-08-25T22:15:20.867Z,22.70
2022-08-25T22:17:49.219Z,22.60
2022-08-25T22:20:20.006Z,22.60
2022-08-25T22:22:48.175Z,22.50
2022-08-25T22:25:17.441Z,22.50
2022-08-25T22:27:45.464Z,22.50
2022-08-25T22:30:15.587Z,22.40
2022-08-25T22:32:45.594Z,22.40
2022-08-25T22:35:13.789Z,22.40
2022-08-25T22:37:46.933Z,22.30
2022-08-25T22:40:15.398Z,22.30
2022-08-25T22:42:48.079Z,22.30
2022-08-25T22:45:17.460Z,22.30
2022-08-25T22:47:45.740Z,22.40
2022-08-25T22:50:14.150Z,22.40
2022-08-25T22:52:46.903Z,22.30
2022-08-25T22:55:18.072Z,22.30
2022-08-25T22:57:50.236Z,22.20
2022-08-25T23:00:23.492Z,22.20
2022-08-25T23:02:53.297Z,22.10
2022-08-25T23:05:21.570Z,22.10
2022-08-25T23:07:52.228Z,22.00
2022-08-25T23:10:22.684Z,22.00
2022-08-25T23:12:51.541Z,22.00
2022-08-25T23:15:27.289Z,21.90
2022-08-25T23:17:55.271Z,21.90
2022-08-25T23:20:44.798Z,21.90
2022-08-25T23:23:14.828Z,21.80
2022-08-25T23:25:43.790Z,21.80
2022-08-25T23:28:11.780Z,21.80
2022-08-25T23:30:39.914Z,21.80
2022-08-25T23:33:11.950Z,21.80
2022-08-25T23:35:39.904Z,21.80
2022-08-25T23:38:07.900Z,21.70
2022-08-25T23:40:41.924Z,21.70
2022-08-25T23:43:10.416Z,21.70
2022-08-25T23:45:38.672Z,21.70
2022-08-25T23:48:08.939Z,21.70
2022-08-25T23:50:40.885Z,21.60
2022-08-25T23:53:09.871Z,21.60
2022-08-25T23:55:39.270Z,21.60
2022-08-25T23:58:21.753Z,21.60
